KWVL/WVL METAR and TAF weather

Enter ICAO airport designator
Station Type Date Time Source
KWVL METAR 2019/10/23 01:56 UTC NOAA

KWVL 230156Z AUTO 00000KT 10SM BKN050 11/07 A3007 RMK AO2 SLP211 T01060067


Station Type Date Time Source
KWVL Decoded METAR 2019/10/23 01:56 UTC NOAA

Waterville, Waterville Robert LaFleur Airport, ME, United States (KWVL) 44-32N 069-41W
Oct 22, 2019 - 09:56 PM EDT / 2019.10.23 0156 UTC
Wind: Calm:0
Visibility: 10 mile(s):0
Sky conditions: mostly cloudy
Temperature: 51.1 F (10.6 C)
Dew Point: 44.1 F (6.7 C)
Relative Humidity: 76%
Pressure (altimeter): 30.07 in. Hg (1018 hPa)
ob: KWVL 230156Z AUTO 00000KT 10SM BKN050 11/07 A3007 RMK AO2 SLP211 T01060067
cycle: 2

Station Type Date Time Source
KWVL TAF UTC NOAA

Error!

Example: see airport list